createdAt,value
2022-09-17T00:00:58.353Z,23.93
2022-09-17T00:01:58.372Z,23.96
2022-09-17T00:02:58.420Z,23.93
2022-09-17T00:03:58.461Z,23.93
2022-09-17T00:04:58.306Z,23.96
2022-09-17T00:05:58.304Z,23.96
2022-09-17T00:06:58.278Z,23.96
2022-09-17T00:07:58.271Z,23.97
2022-09-17T00:08:58.261Z,23.94
2022-09-17T00:09:58.250Z,23.94
2022-09-17T00:10:58.236Z,23.93
2022-09-17T00:11:58.233Z,23.92
2022-09-17T00:12:58.211Z,23.92
2022-09-17T00:13:58.305Z,23.90
2022-09-17T00:14:58.187Z,23.90
2022-09-17T00:15:58.194Z,23.90
2022-09-17T00:17:01.813Z,23.92
2022-09-17T00:17:58.157Z,23.89
2022-09-17T00:18:58.138Z,23.92
2022-09-17T00:19:58.125Z,23.90
2022-09-17T00:20:58.132Z,23.90
2022-09-17T00:21:58.099Z,23.94
2022-09-17T00:22:58.089Z,23.92
2022-09-17T00:23:58.083Z,23.92
2022-09-17T00:24:58.065Z,23.90
2022-09-17T00:25:58.046Z,23.90
2022-09-17T00:26:58.043Z,23.90
2022-09-17T00:27:58.022Z,23.89
2022-09-17T00:28:58.019Z,23.90
2022-09-17T00:29:58.015Z,23.87
2022-09-17T00:30:58.032Z,23.89
2022-09-17T00:31:57.977Z,23.89
2022-09-17T00:32:57.966Z,23.87
2022-09-17T00:33:57.951Z,23.89
2022-09-17T00:34:57.939Z,23.86
2022-09-17T00:35:57.965Z,23.89
2022-09-17T00:36:57.914Z,23.92
2022-09-17T00:37:57.913Z,23.89
2022-09-17T00:38:57.889Z,23.90
2022-09-17T00:39:57.937Z,23.87
2022-09-17T00:40:57.887Z,23.90
2022-09-17T00:41:57.875Z,23.90
2022-09-17T00:42:57.839Z,23.92
2022-09-17T00:43:57.966Z,23.87
2022-09-17T00:44:57.814Z,23.89
2022-09-17T00:45:57.811Z,23.89
2022-09-17T00:46:57.849Z,23.87
2022-09-17T00:47:57.794Z,23.90
2022-09-17T00:48:57.768Z,23.89
2022-09-17T00:49:57.753Z,23.90
2022-09-17T00:50:57.744Z,23.87
2022-09-17T00:52:00.446Z,23.89
2022-09-17T00:52:57.723Z,23.90
2022-09-17T00:53:57.717Z,23.90
2022-09-17T00:54:57.692Z,23.87
2022-09-17T00:55:57.683Z,23.89
2022-09-17T00:56:57.666Z,23.86
2022-09-17T00:57:57.665Z,23.86
2022-09-17T00:58:57.763Z,23.84
2022-09-17T00:59:57.650Z,23.84
2022-09-17T01:00:57.732Z,23.86
2022-09-17T01:01:57.663Z,23.86
2022-09-17T01:02:57.616Z,23.86
2022-09-17T01:03:57.599Z,23.86
2022-09-17T01:04:57.568Z,23.87
2022-09-17T01:05:57.570Z,23.87
2022-09-17T01:06:57.546Z,23.86
2022-09-17T01:07:57.531Z,23.84
2022-09-17T01:08:57.529Z,23.86
2022-09-17T01:09:57.507Z,23.87
2022-09-17T01:10:57.497Z,23.86
2022-09-17T01:11:57.496Z,23.84
2022-09-17T01:12:57.469Z,23.84
2022-09-17T01:13:57.509Z,23.82
2022-09-17T01:14:57.443Z,23.84
2022-09-17T01:15:57.493Z,23.87
2022-09-17T01:16:57.429Z,23.84
2022-09-17T01:17:57.422Z,23.84
2022-09-17T01:18:57.400Z,23.84
2022-09-17T01:19:57.398Z,23.87
2022-09-17T01:20:57.377Z,23.86
2022-09-17T01:21:57.359Z,23.87
2022-09-17T01:22:57.360Z,23.86
2022-09-17T01:23:57.385Z,23.84
2022-09-17T01:24:57.320Z,23.87
2022-09-17T01:25:57.333Z,23.89
2022-09-17T01:26:57.309Z,23.86
2022-09-17T01:27:57.285Z,23.89
2022-09-17T01:28:57.277Z,23.87
2022-09-17T01:29:57.275Z,23.87
2022-09-17T01:30:57.312Z,23.87
2022-09-17T01:31:57.237Z,23.89
2022-09-17T01:32:57.230Z,23.86
2022-09-17T01:33:57.229Z,23.86
2022-09-17T01:34:57.201Z,23.87
2022-09-17T01:35:57.197Z,23.86
2022-09-17T01:36:57.175Z,23.89
2022-09-17T01:37:57.163Z,23.89
2022-09-17T01:38:57.147Z,23.87
2022-09-17T01:39:57.174Z,23.89
2022-09-17T01:40:57.127Z,23.89
2022-09-17T01:41:57.126Z,23.89
2022-09-17T01:42:57.109Z,23.86
2022-09-17T01:43:57.091Z,23.86
2022-09-17T01:44:57.079Z,23.87
2022-09-17T01:45:57.065Z,23.86
2022-09-17T01:46:57.206Z,23.86
2022-09-17T01:47:57.046Z,23.87
2022-09-17T01:48:57.030Z,23.87
2022-09-17T01:49:57.016Z,23.87
2022-09-17T01:50:57.005Z,23.86
2022-09-17T01:51:56.987Z,23.86
2022-09-17T01:52:57.015Z,23.87
2022-09-17T01:53:57.036Z,23.87
2022-09-17T01:54:56.960Z,23.89
2022-09-17T01:55:56.943Z,23.89
2022-09-17T01:56:56.936Z,23.90
2022-09-17T01:57:56.924Z,23.89
2022-09-17T01:58:56.906Z,23.90
2022-09-17T01:59:56.917Z,23.90
2022-09-17T02:00:56.957Z,23.89
2022-09-17T02:01:56.928Z,23.90
2022-09-17T02:02:56.857Z,23.90
2022-09-17T02:03:56.850Z,23.89
2022-09-17T02:04:56.827Z,23.89
2022-09-17T02:05:56.838Z,23.89
2022-09-17T02:06:56.808Z,23.89
2022-09-17T02:07:56.797Z,23.89
2022-09-17T02:08:56.780Z,23.90
2022-09-17T02:09:56.764Z,23.87
2022-09-17T02:10:56.757Z,23.87
2022-09-17T02:11:56.749Z,23.86
2022-09-17T02:12:56.737Z,23.87
2022-09-17T02:13:56.721Z,23.87
2022-09-17T02:14:56.711Z,23.87
2022-09-17T02:15:56.730Z,23.87
2022-09-17T02:16:56.687Z,23.87
2022-09-17T02:17:56.682Z,23.86
2022-09-17T02:18:56.678Z,23.86
2022-09-17T02:19:56.647Z,23.84
2022-09-17T02:20:56.631Z,23.89
2022-09-17T02:21:56.621Z,23.86
2022-09-17T02:22:56.611Z,23.84
2022-09-17T02:23:56.613Z,23.84
2022-09-17T02:24:56.588Z,23.82
2022-09-17T02:25:56.579Z,23.82
2022-09-17T02:26:56.559Z,23.86
2022-09-17T02:27:56.547Z,23.86
2022-09-17T02:28:56.531Z,23.82
2022-09-17T02:29:56.533Z,23.84
2022-09-17T02:30:56.545Z,23.84
2022-09-17T02:31:56.505Z,23.82
2022-09-17T02:32:56.489Z,23.86
2022-09-17T02:33:56.482Z,23.82
2022-09-17T02:34:56.484Z,23.84
2022-09-17T02:35:56.458Z,23.82
2022-09-17T02:36:56.437Z,23.82
2022-09-17T02:37:56.429Z,23.81
2022-09-17T02:38:56.420Z,23.81
2022-09-17T02:39:56.452Z,23.81
2022-09-17T02:40:56.399Z,23.81
2022-09-17T02:41:56.383Z,23.81
2022-09-17T02:42:56.362Z,23.81
2022-09-17T02:43:56.352Z,23.82
2022-09-17T02:44:56.353Z,23.79
2022-09-17T02:45:56.322Z,23.79
2022-09-17T02:46:56.412Z,23.79
2022-09-17T02:47:56.313Z,23.81
2022-09-17T02:48:56.286Z,23.81
2022-09-17T02:49:56.273Z,23.79
2022-09-17T02:50:56.274Z,23.82
2022-09-17T02:51:56.255Z,23.79
2022-09-17T02:52:56.238Z,23.79
2022-09-17T02:53:56.299Z,23.81
2022-09-17T02:54:56.213Z,23.81
2022-09-17T02:55:56.197Z,23.79
2022-09-17T02:56:56.193Z,23.81
2022-09-17T02:57:56.177Z,23.81
2022-09-17T02:58:56.163Z,23.82
2022-09-17T02:59:56.162Z,23.82
2022-09-17T03:00:56.198Z,23.84
2022-09-17T03:01:56.184Z,23.82
2022-09-17T03:02:56.134Z,23.84
2022-09-17T03:03:56.113Z,23.82
2022-09-17T03:04:56.092Z,23.86
2022-09-17T03:05:56.090Z,23.81
2022-09-17T03:06:56.062Z,23.82
2022-09-17T03:07:56.052Z,23.82
2022-09-17T03:08:56.094Z,23.82
2022-09-17T03:09:56.038Z,23.84
2022-09-17T03:10:56.016Z,23.84
2022-09-17T03:11:56.023Z,23.81
2022-09-17T03:12:55.999Z,23.84
2022-09-17T03:13:55.992Z,23.84
2022-09-17T03:14:55.966Z,23.81
2022-09-17T03:15:56.041Z,23.79
2022-09-17T03:16:55.942Z,23.81
2022-09-17T03:17:55.940Z,23.81
2022-09-17T03:18:55.918Z,23.81
2022-09-17T03:19:55.905Z,23.81
2022-09-17T03:20:55.892Z,23.79
2022-09-17T03:21:55.880Z,23.79
2022-09-17T03:22:55.867Z,23.81
2022-09-17T03:23:55.912Z,23.79
2022-09-17T03:24:55.855Z,23.78
2022-09-17T03:25:55.826Z,23.79
2022-09-17T03:26:55.822Z,23.79
2022-09-17T03:27:55.821Z,23.78
2022-09-17T03:28:56.158Z,23.78
2022-09-17T03:29:55.803Z,23.78
2022-09-17T03:30:55.807Z,23.81
2022-09-17T03:31:55.770Z,23.79
2022-09-17T03:32:55.751Z,23.79
2022-09-17T03:33:55.735Z,23.81
2022-09-17T03:34:55.717Z,23.79
2022-09-17T03:35:55.731Z,23.81
2022-09-17T03:36:55.698Z,23.78
2022-09-17T03:37:55.699Z,23.78
2022-09-17T03:38:55.728Z,23.81
2022-09-17T03:39:55.710Z,23.79
2022-09-17T03:40:55.643Z,23.79
2022-09-17T03:41:55.649Z,23.78
2022-09-17T03:42:55.624Z,23.82
2022-09-17T03:43:55.615Z,23.79
2022-09-17T03:44:55.595Z,23.81
2022-09-17T03:45:55.589Z,23.84
2022-09-17T03:46:55.679Z,23.79
2022-09-17T03:47:55.570Z,23.79
2022-09-17T03:48:55.543Z,23.79
2022-09-17T03:49:55.532Z,23.79
2022-09-17T03:50:55.523Z,23.81
2022-09-17T03:51:55.512Z,23.78
2022-09-17T03:52:55.514Z,23.78
2022-09-17T03:53:55.505Z,23.77
2022-09-17T03:54:55.468Z,23.78
2022-09-17T03:55:55.458Z,23.77
2022-09-17T03:56:55.445Z,23.77
2022-09-17T03:57:55.440Z,23.79
2022-09-17T03:58:55.424Z,23.77
2022-09-17T03:59:55.441Z,23.79
2022-09-17T04:00:55.428Z,23.77
2022-09-17T04:01:55.456Z,23.77
2022-09-17T04:02:55.435Z,23.78
2022-09-17T04:03:55.496Z,23.79
2022-09-17T04:04:55.346Z,23.75
2022-09-17T04:05:55.361Z,23.77
2022-09-17T04:06:55.332Z,23.74
2022-09-17T04:07:55.312Z,23.77
2022-09-17T04:08:55.931Z,23.75
2022-09-17T04:09:55.288Z,23.75
2022-09-17T04:10:55.278Z,23.75
2022-09-17T04:11:55.288Z,23.75
2022-09-17T04:12:55.266Z,23.75
2022-09-17T04:13:55.244Z,23.74
2022-09-17T04:14:55.220Z,23.77
2022-09-17T04:15:55.313Z,23.75
2022-09-17T04:16:55.212Z,23.74
2022-09-17T04:17:55.201Z,23.74
2022-09-17T04:18:55.186Z,23.74
2022-09-17T04:19:55.158Z,23.77
2022-09-17T04:20:55.148Z,23.75
2022-09-17T04:21:55.150Z,23.77
2022-09-17T04:22:55.123Z,23.77
2022-09-17T04:23:55.121Z,23.75
2022-09-17T04:24:55.101Z,23.75
2022-09-17T04:25:55.088Z,23.75
2022-09-17T04:26:55.084Z,23.75
2022-09-17T04:27:55.077Z,23.75
2022-09-17T04:28:55.049Z,23.77
2022-09-17T04:29:55.044Z,23.77
2022-09-17T04:30:55.057Z,23.77
2022-09-17T04:31:55.013Z,23.75
2022-09-17T04:32:54.996Z,23.74
2022-09-17T04:33:54.985Z,23.75
2022-09-17T04:34:54.979Z,23.74
2022-09-17T04:35:54.970Z,23.72
2022-09-17T04:36:54.950Z,23.74
2022-09-17T04:37:54.938Z,23.74
2022-09-17T04:38:54.920Z,23.74
2022-09-17T04:39:54.941Z,23.75
2022-09-17T04:40:54.912Z,23.71
2022-09-17T04:41:54.901Z,23.74
2022-09-17T04:42:54.879Z,23.69
2022-09-17T04:43:54.867Z,23.72
2022-09-17T04:44:54.853Z,23.71
2022-09-17T04:45:54.840Z,23.69
2022-09-17T04:46:54.893Z,23.72
2022-09-17T04:47:54.821Z,23.69
2022-09-17T04:48:54.800Z,23.71
2022-09-17T04:49:54.790Z,23.71
2022-09-17T04:50:54.780Z,23.72
2022-09-17T04:51:54.704Z,23.71
2022-09-17T04:52:54.750Z,23.72
2022-09-17T04:53:54.749Z,23.71
2022-09-17T04:54:54.723Z,23.72
2022-09-17T04:55:54.673Z,23.75
2022-09-17T04:56:54.650Z,23.71
2022-09-17T04:57:54.695Z,23.72
2022-09-17T04:58:54.632Z,23.71
2022-09-17T04:59:54.616Z,23.74
2022-09-17T05:00:54.687Z,23.69
2022-09-17T05:01:54.654Z,23.72
2022-09-17T05:02:54.585Z,23.71
2022-09-17T05:03:54.556Z,23.74
2022-09-17T05:04:54.559Z,23.74
2022-09-17T05:05:54.560Z,23.69
2022-09-17T05:06:54.526Z,23.72
2022-09-17T05:07:54.522Z,23.72
2022-09-17T05:08:54.514Z,23.72
2022-09-17T05:09:54.495Z,23.72
2022-09-17T05:10:54.467Z,23.72
2022-09-17T05:11:54.468Z,23.71
2022-09-17T05:12:54.458Z,23.72
2022-09-17T05:13:54.446Z,23.71
2022-09-17T05:14:54.420Z,23.72
2022-09-17T05:15:54.463Z,23.71
2022-09-17T05:16:54.394Z,23.71
2022-09-17T05:17:54.407Z,23.71
2022-09-17T05:18:54.372Z,23.71
2022-09-17T05:19:54.379Z,23.69
2022-09-17T05:20:54.357Z,23.69
2022-09-17T05:21:54.342Z,23.71
2022-09-17T05:22:54.345Z,23.72
2022-09-17T05:23:54.349Z,23.71
2022-09-17T05:24:54.306Z,23.69
2022-09-17T05:25:54.292Z,23.69
2022-09-17T05:26:54.270Z,23.69
2022-09-17T05:27:54.270Z,23.68
2022-09-17T05:28:54.248Z,23.71
2022-09-17T05:29:54.241Z,23.69
2022-09-17T05:30:54.292Z,23.69
2022-09-17T05:31:54.208Z,23.71
2022-09-17T05:32:54.194Z,23.69
2022-09-17T05:33:54.187Z,23.69
2022-09-17T05:34:54.174Z,23.71
2022-09-17T05:35:54.168Z,23.72
2022-09-17T05:36:54.148Z,23.71
2022-09-17T05:37:54.141Z,23.69
2022-09-17T05:38:54.129Z,23.71
2022-09-17T05:39:54.174Z,23.68
2022-09-17T05:40:54.097Z,23.68
2022-09-17T05:41:54.112Z,23.68
2022-09-17T05:42:54.072Z,23.69
2022-09-17T05:43:54.065Z,23.67
2022-09-17T05:44:54.080Z,23.67
2022-09-17T05:45:54.031Z,23.69
2022-09-17T05:46:54.108Z,23.69
2022-09-17T05:47:54.018Z,23.69
2022-09-17T05:48:54.007Z,23.68
2022-09-17T05:49:53.983Z,23.69
2022-09-17T05:50:53.976Z,23.67
2022-09-17T05:51:53.954Z,23.67
2022-09-17T05:52:53.945Z,23.64
2022-09-17T05:53:53.947Z,23.64
2022-09-17T05:54:53.931Z,23.67
2022-09-17T05:55:53.905Z,23.67
2022-09-17T05:56:53.895Z,23.69
2022-09-17T05:57:53.880Z,23.68
2022-09-17T05:58:53.870Z,23.67
2022-09-17T05:59:53.866Z,23.68
2022-09-17T06:00:53.851Z,23.67
2022-09-17T06:01:53.890Z,23.69
2022-09-17T06:02:53.872Z,23.71
2022-09-17T06:03:53.812Z,23.69
2022-09-17T06:04:53.805Z,23.69
2022-09-17T06:05:53.788Z,23.68
2022-09-17T06:06:53.770Z,23.68
2022-09-17T06:07:53.759Z,23.68
2022-09-17T06:08:53.741Z,23.69
2022-09-17T06:09:53.736Z,23.68
2022-09-17T06:10:53.720Z,23.69
2022-09-17T06:11:53.718Z,23.69
2022-09-17T06:12:53.693Z,23.68
2022-09-17T06:13:53.691Z,23.68
2022-09-17T06:14:53.667Z,23.67
2022-09-17T06:15:53.723Z,23.67
2022-09-17T06:16:53.642Z,23.64
2022-09-17T06:17:53.641Z,23.63
2022-09-17T06:18:53.624Z,23.67
2022-09-17T06:19:53.609Z,23.62
2022-09-17T06:20:53.597Z,23.62
2022-09-17T06:21:53.585Z,23.63
2022-09-17T06:22:53.581Z,23.63
2022-09-17T06:23:53.568Z,23.63
2022-09-17T06:24:53.560Z,23.60
2022-09-17T06:25:53.542Z,23.60
2022-09-17T06:26:53.519Z,23.57
2022-09-17T06:27:53.503Z,23.59
2022-09-17T06:28:53.511Z,23.57
2022-09-17T06:29:53.505Z,23.59
2022-09-17T06:30:53.479Z,23.57
2022-09-17T06:31:53.532Z,23.57
2022-09-17T06:32:53.444Z,23.56
2022-09-17T06:33:54.201Z,23.53
2022-09-17T06:34:53.431Z,23.53
2022-09-17T06:35:53.415Z,23.56
2022-09-17T06:36:53.396Z,23.54
2022-09-17T06:37:53.383Z,23.52
2022-09-17T06:38:53.371Z,23.53
2022-09-17T06:39:53.400Z,23.50
2022-09-17T06:40:53.350Z,23.54
2022-09-17T06:41:53.351Z,23.53
2022-09-17T06:42:53.318Z,23.50
2022-09-17T06:43:53.321Z,23.53
2022-09-17T06:44:53.304Z,23.50
2022-09-17T06:45:53.285Z,23.52
2022-09-17T06:46:53.326Z,23.52
2022-09-17T06:47:53.272Z,23.52
2022-09-17T06:48:53.252Z,23.53
2022-09-17T06:49:53.244Z,23.52
2022-09-17T06:50:53.223Z,23.53
2022-09-17T06:51:53.210Z,23.52
2022-09-17T06:52:53.191Z,23.50
2022-09-17T06:53:53.200Z,23.49
2022-09-17T06:54:53.185Z,23.52
2022-09-17T06:55:53.159Z,23.49
2022-09-17T06:56:53.146Z,23.49
2022-09-17T06:57:53.137Z,23.47
2022-09-17T06:58:53.120Z,23.45
2022-09-17T06:59:53.116Z,23.45
2022-09-17T07:00:53.144Z,23.45
2022-09-17T07:01:53.139Z,23.45
2022-09-17T07:02:53.072Z,23.44
2022-09-17T07:03:53.067Z,23.44
2022-09-17T07:04:53.046Z,23.45
2022-09-17T07:05:53.045Z,23.47
2022-09-17T07:06:53.026Z,23.45
2022-09-17T07:07:53.009Z,23.45
2022-09-17T07:08:52.999Z,23.47
2022-09-17T07:09:52.985Z,23.49
2022-09-17T07:10:52.977Z,23.44
2022-09-17T07:11:52.964Z,23.45
2022-09-17T07:12:52.946Z,23.45
2022-09-17T07:13:52.937Z,23.44
2022-09-17T07:14:52.932Z,23.44
2022-09-17T07:15:52.956Z,23.42
2022-09-17T07:16:52.898Z,23.42
2022-09-17T07:17:52.893Z,23.47
2022-09-17T07:18:52.873Z,23.45
2022-09-17T07:19:52.858Z,23.45
2022-09-17T07:20:52.851Z,23.45
2022-09-17T07:21:52.833Z,23.44
2022-09-17T07:22:52.826Z,23.47
2022-09-17T07:23:52.828Z,23.45
2022-09-17T07:24:52.804Z,23.45
2022-09-17T07:25:52.786Z,23.50
2022-09-17T07:26:52.778Z,23.49
2022-09-17T07:27:52.761Z,23.49
2022-09-17T07:28:52.753Z,23.52
2022-09-17T07:29:52.765Z,23.49
2022-09-17T07:30:52.789Z,23.50
2022-09-17T07:31:52.711Z,23.50
2022-09-17T07:32:52.701Z,23.49
2022-09-17T07:33:52.693Z,23.49
2022-09-17T07:34:52.675Z,23.47
2022-09-17T07:35:53.510Z,23.47
2022-09-17T07:36:52.646Z,23.49
2022-09-17T07:37:52.640Z,23.47
2022-09-17T07:38:52.627Z,23.49
2022-09-17T07:39:52.667Z,23.47
2022-09-17T07:40:52.604Z,23.52
2022-09-17T07:41:52.596Z,23.47
2022-09-17T07:42:52.575Z,23.45
2022-09-17T07:43:52.572Z,23.45
2022-09-17T07:44:52.557Z,23.44
2022-09-17T07:45:52.547Z,23.45
2022-09-17T07:46:52.592Z,23.44
2022-09-17T07:47:52.529Z,23.45
2022-09-17T07:48:52.523Z,23.49
2022-09-17T07:49:52.502Z,23.45
2022-09-17T07:50:52.469Z,23.49
2022-09-17T07:51:52.459Z,23.49
2022-09-17T07:52:52.448Z,23.50
2022-09-17T07:53:52.441Z,23.49
2022-09-17T07:54:52.425Z,23.52
2022-09-17T07:55:52.411Z,23.50
2022-09-17T07:56:52.403Z,23.49
2022-09-17T07:57:52.392Z,23.52
2022-09-17T07:58:52.375Z,23.49
2022-09-17T07:59:52.366Z,23.50
2022-09-17T08:00:52.346Z,23.49
2022-09-17T08:01:52.501Z,23.47
2022-09-17T08:02:52.467Z,23.50
2022-09-17T08:03:52.326Z,23.49
2022-09-17T08:04:52.305Z,23.50
2022-09-17T08:05:52.296Z,23.47
2022-09-17T08:06:52.283Z,23.49
2022-09-17T08:07:52.262Z,23.49
2022-09-17T08:08:52.245Z,23.49
2022-09-17T08:09:52.245Z,23.47
2022-09-17T08:10:52.233Z,23.49
2022-09-17T08:11:56.095Z,23.49
2022-09-17T08:12:52.193Z,23.47
2022-09-17T08:13:52.191Z,23.45
2022-09-17T08:14:52.170Z,23.45
2022-09-17T08:15:52.204Z,23.44
2022-09-17T08:16:52.155Z,23.45
2022-09-17T08:17:52.145Z,23.44
2022-09-17T08:18:52.120Z,23.45
2022-09-17T08:19:52.115Z,23.44
2022-09-17T08:20:52.094Z,23.45
2022-09-17T08:21:52.096Z,23.42
2022-09-17T08:22:52.070Z,23.44
2022-09-17T08:23:52.067Z,23.42
2022-09-17T08:24:52.045Z,23.44
2022-09-17T08:25:52.038Z,23.42
2022-09-17T08:26:52.023Z,23.41
2022-09-17T08:27:52.016Z,23.44
2022-09-17T08:28:52.003Z,23.42
2022-09-17T08:29:51.998Z,23.42
2022-09-17T08:30:52.010Z,23.44
2022-09-17T08:31:52.103Z,23.42
2022-09-17T08:32:51.948Z,23.44
2022-09-17T08:33:51.935Z,23.42
2022-09-17T08:34:51.938Z,23.44
2022-09-17T08:35:51.926Z,23.42
2022-09-17T08:36:51.913Z,23.45
2022-09-17T08:37:51.887Z,23.47
2022-09-17T08:38:51.917Z,23.45
2022-09-17T08:39:51.909Z,23.47
2022-09-17T08:40:51.855Z,23.45
2022-09-17T08:41:51.865Z,23.45
2022-09-17T08:42:51.827Z,23.45
2022-09-17T08:43:51.822Z,23.44
2022-09-17T08:44:52.667Z,23.44
2022-09-17T08:45:51.784Z,23.42
2022-09-17T08:46:51.817Z,23.42
2022-09-17T08:47:51.776Z,23.41
2022-09-17T08:48:51.747Z,23.42
2022-09-17T08:49:51.737Z,23.41
2022-09-17T08:50:51.744Z,23.39
2022-09-17T08:51:51.721Z,23.39
2022-09-17T08:52:51.736Z,23.41
2022-09-17T08:53:51.699Z,23.41
2022-09-17T08:54:51.671Z,23.42
2022-09-17T08:55:51.667Z,23.41
2022-09-17T08:56:51.652Z,23.41
2022-09-17T08:57:51.641Z,23.39
2022-09-17T08:58:51.622Z,23.41
2022-09-17T08:59:51.631Z,23.41
2022-09-17T09:00:51.597Z,23.42
2022-09-17T09:01:51.664Z,23.42
2022-09-17T09:02:51.613Z,23.42
2022-09-17T09:03:51.563Z,23.44
2022-09-17T09:04:51.560Z,23.42
2022-09-17T09:05:51.556Z,23.45
2022-09-17T09:06:51.528Z,23.45
2022-09-17T09:07:51.521Z,23.45
2022-09-17T09:08:51.494Z,23.47
2022-09-17T09:09:51.489Z,23.47
2022-09-17T09:10:51.470Z,23.50
2022-09-17T09:11:51.469Z,23.49
2022-09-17T09:12:51.451Z,23.47
2022-09-17T09:13:51.441Z,23.50
2022-09-17T09:14:51.424Z,23.47
2022-09-17T09:15:51.491Z,23.49
2022-09-17T09:16:51.398Z,23.49
2022-09-17T09:17:51.408Z,23.49
2022-09-17T09:18:51.392Z,23.49
2022-09-17T09:19:51.362Z,23.49
2022-09-17T09:20:51.351Z,23.49
2022-09-17T09:21:51.351Z,23.45
2022-09-17T09:22:51.350Z,23.45
2022-09-17T09:23:51.330Z,23.44
2022-09-17T09:24:51.310Z,23.44
2022-09-17T09:25:51.284Z,23.44
2022-09-17T09:26:53.285Z,23.45
2022-09-17T09:27:51.268Z,23.44
2022-09-17T09:28:51.253Z,23.44
2022-09-17T09:29:51.243Z,23.44
2022-09-17T09:30:51.333Z,23.44
2022-09-17T09:31:51.226Z,23.45
2022-09-17T09:32:51.193Z,23.44
2022-09-17T09:33:51.198Z,23.45
2022-09-17T09:34:51.168Z,23.49
2022-09-17T09:35:51.172Z,23.45
2022-09-17T09:36:51.146Z,23.47
2022-09-17T09:37:51.138Z,23.45
2022-09-17T09:38:51.120Z,23.49
2022-09-17T09:39:51.162Z,23.47
2022-09-17T09:40:51.093Z,23.47
2022-09-17T09:41:51.095Z,23.47
2022-09-17T09:42:51.077Z,23.52
2022-09-17T09:44:03.583Z,23.50
2022-09-17T09:44:51.049Z,23.50
2022-09-17T09:45:51.035Z,23.49
2022-09-17T09:46:51.120Z,23.50
2022-09-17T09:47:51.039Z,23.52
2022-09-17T09:48:50.995Z,23.49
2022-09-17T09:49:50.988Z,23.50
2022-09-17T09:51:07.296Z,23.53
2022-09-17T09:51:50.962Z,23.52
2022-09-17T09:52:50.942Z,23.52
2022-09-17T09:53:50.946Z,23.52
2022-09-17T09:54:50.917Z,23.53
2022-09-17T09:55:50.905Z,23.53
2022-09-17T09:56:50.918Z,23.53
2022-09-17T09:57:50.903Z,23.53
2022-09-17T09:58:50.868Z,23.52
2022-09-17T09:59:50.868Z,23.52
2022-09-17T10:00:50.846Z,23.52
2022-09-17T10:01:50.915Z,23.52
2022-09-17T10:02:50.875Z,23.53
2022-09-17T10:03:50.818Z,23.49
2022-09-17T10:04:53.498Z,23.50
2022-09-17T10:05:50.798Z,23.53
2022-09-17T10:06:50.773Z,23.49
2022-09-17T10:07:50.778Z,23.47
2022-09-17T10:08:50.757Z,23.49
2022-09-17T10:09:50.737Z,23.45
2022-09-17T10:10:50.729Z,23.50
2022-09-17T10:11:50.718Z,23.49
2022-09-17T10:12:50.717Z,23.47
2022-09-17T10:13:50.701Z,23.49
2022-09-17T10:14:50.667Z,23.45
2022-09-17T10:15:50.685Z,23.47
2022-09-17T10:16:50.642Z,23.47
2022-09-17T10:17:50.645Z,23.45
2022-09-17T10:18:50.624Z,23.47
2022-09-17T10:19:50.604Z,23.47
2022-09-17T10:20:50.600Z,23.49
2022-09-17T10:21:50.597Z,23.49
2022-09-17T10:22:50.586Z,23.45
2022-09-17T10:23:50.570Z,23.50
2022-09-17T10:24:50.543Z,23.45
2022-09-17T10:25:50.536Z,23.47
2022-09-17T10:26:50.531Z,23.50
2022-09-17T10:27:50.538Z,23.50
2022-09-17T10:28:50.520Z,23.45
2022-09-17T10:29:50.514Z,23.47
2022-09-17T10:30:50.471Z,23.47
2022-09-17T10:31:50.529Z,23.52
2022-09-17T10:32:50.440Z,23.50
2022-09-17T10:33:50.437Z,23.52
2022-09-17T10:34:50.421Z,23.53
2022-09-17T10:35:50.419Z,23.53
2022-09-17T10:36:50.396Z,23.54
2022-09-17T10:37:50.381Z,23.57
2022-09-17T10:38:50.368Z,23.59
2022-09-17T10:39:50.421Z,23.57
2022-09-17T10:40:50.342Z,23.59
2022-09-17T10:41:50.344Z,23.64
2022-09-17T10:42:50.351Z,23.63
2022-09-17T10:43:50.306Z,23.64
2022-09-17T10:44:50.297Z,23.64
2022-09-17T10:45:50.282Z,23.63
2022-09-17T10:46:50.330Z,23.63
2022-09-17T10:47:50.259Z,23.63
2022-09-17T10:48:50.244Z,23.62
2022-09-17T10:49:50.243Z,23.63
2022-09-17T10:50:50.223Z,23.63
2022-09-17T10:51:50.203Z,23.60
2022-09-17T10:52:50.198Z,23.62
2022-09-17T10:53:50.202Z,23.60
2022-09-17T10:54:50.184Z,23.59
2022-09-17T10:55:50.157Z,23.57
2022-09-17T10:56:50.147Z,23.57
2022-09-17T10:57:50.148Z,23.54
2022-09-17T10:58:50.115Z,23.56
2022-09-17T10:59:50.121Z,23.56
2022-09-17T11:00:50.094Z,23.56
2022-09-17T11:01:50.182Z,23.54
2022-09-17T11:02:50.123Z,23.56
2022-09-17T11:03:50.056Z,23.54
2022-09-17T11:04:50.041Z,23.53
2022-09-17T11:05:50.067Z,23.56
2022-09-17T11:06:50.032Z,23.54
2022-09-17T11:07:50.005Z,23.54
2022-09-17T11:08:50.006Z,23.59
2022-09-17T11:09:49.980Z,23.57
2022-09-17T11:10:49.969Z,23.59
2022-09-17T11:11:49.979Z,23.60
2022-09-17T11:12:49.939Z,23.59
2022-09-17T11:13:49.944Z,23.57
2022-09-17T11:14:49.924Z,23.57
2022-09-17T11:15:53.027Z,23.60
2022-09-17T11:16:49.918Z,23.60
2022-09-17T11:17:49.888Z,23.60
2022-09-17T11:18:49.878Z,23.59
2022-09-17T11:19:49.868Z,23.59
2022-09-17T11:20:49.841Z,23.59
2022-09-17T11:21:49.833Z,23.57
2022-09-17T11:22:49.826Z,23.59
2022-09-17T11:23:49.841Z,23.56
2022-09-17T11:24:49.797Z,23.56
2022-09-17T11:25:49.782Z,23.54
2022-09-17T11:26:49.763Z,23.52
2022-09-17T11:27:49.778Z,23.52
2022-09-17T11:28:49.744Z,23.52
2022-09-17T11:29:49.752Z,23.52
2022-09-17T11:30:49.716Z,23.52
2022-09-17T11:31:49.751Z,23.52
2022-09-17T11:32:49.708Z,23.50
2022-09-17T11:33:49.678Z,23.49
2022-09-17T11:34:49.669Z,23.53
2022-09-17T11:35:49.669Z,23.50
2022-09-17T11:36:49.639Z,23.53
2022-09-17T11:37:49.632Z,23.52
2022-09-17T11:38:49.652Z,23.53
2022-09-17T11:39:49.699Z,23.52
2022-09-17T11:40:49.596Z,23.53
2022-09-17T11:41:49.588Z,23.54
2022-09-17T11:42:49.568Z,23.57
2022-09-17T11:43:49.553Z,23.54
2022-09-17T11:44:49.539Z,23.56
2022-09-17T11:45:49.527Z,23.56
2022-09-17T11:46:49.571Z,23.56
2022-09-17T11:47:49.512Z,23.57
2022-09-17T11:48:49.502Z,23.56
2022-09-17T11:49:49.478Z,23.54
2022-09-17T11:50:49.494Z,23.57
2022-09-17T11:51:49.448Z,23.60
2022-09-17T11:52:49.459Z,23.56
2022-09-17T11:53:49.481Z,23.60
2022-09-17T11:54:49.414Z,23.60
2022-09-17T11:55:49.403Z,23.60
2022-09-17T11:56:49.403Z,23.63
2022-09-17T11:57:49.380Z,23.64
2022-09-17T11:58:49.369Z,23.62
2022-09-17T11:59:49.372Z,23.62
2022-09-17T12:00:49.362Z,23.64
2022-09-17T12:01:49.388Z,23.62
2022-09-17T12:02:49.400Z,23.63
2022-09-17T12:03:49.301Z,23.63
2022-09-17T12:04:49.747Z,23.63
2022-09-17T12:05:49.288Z,23.60
2022-09-17T12:06:49.301Z,23.62
2022-09-17T12:07:49.256Z,23.62
2022-09-17T12:08:49.292Z,23.63
2022-09-17T12:09:49.242Z,23.63
2022-09-17T12:10:49.227Z,23.63
2022-09-17T12:11:49.215Z,23.62
2022-09-17T12:12:50.578Z,23.64
2022-09-17T12:13:49.184Z,23.64
2022-09-17T12:14:49.178Z,23.67
2022-09-17T12:15:53.063Z,23.67
2022-09-17T12:16:49.255Z,23.68
2022-09-17T12:17:49.137Z,23.69
2022-09-17T12:18:49.115Z,23.69
2022-09-17T12:19:49.126Z,23.71
2022-09-17T12:20:49.091Z,23.71
2022-09-17T12:21:49.082Z,23.72
2022-09-17T12:22:49.069Z,23.69
2022-09-17T12:23:49.084Z,23.71
2022-09-17T12:24:49.046Z,23.74
2022-09-17T12:25:49.030Z,23.74
2022-09-17T12:26:49.029Z,23.74
2022-09-17T12:27:49.010Z,23.71
2022-09-17T12:28:49.016Z,23.69
2022-09-17T12:29:49.011Z,23.68
2022-09-17T12:30:48.998Z,23.68
2022-09-17T12:31:49.010Z,23.69
2022-09-17T12:32:48.944Z,23.68
2022-09-17T12:33:49.162Z,23.64
2022-09-17T12:34:48.926Z,23.64
2022-09-17T12:36:05.581Z,23.62
2022-09-17T12:36:48.927Z,23.63
2022-09-17T12:37:48.888Z,23.63
2022-09-17T12:38:48.951Z,23.64
2022-09-17T12:39:48.872Z,23.63
2022-09-17T12:40:48.850Z,23.64
2022-09-17T12:41:48.849Z,23.62
2022-09-17T12:42:48.818Z,23.64
2022-09-17T12:43:48.811Z,23.64
2022-09-17T12:44:48.801Z,23.67
2022-09-17T12:45:50.877Z,23.67
2022-09-17T12:46:48.838Z,23.69
2022-09-17T12:47:48.773Z,23.68
2022-09-17T12:48:48.748Z,23.69
2022-09-17T12:49:48.754Z,23.71
2022-09-17T12:50:48.726Z,23.71
2022-09-17T12:51:48.713Z,23.72
2022-09-17T12:52:48.705Z,23.75